Terminal Aerodrome Forecast
Issued by NWS

Home | Current Version | Previous Version | Text Only | Print | Product List | Glossary On
Versions: 1 2 3 4 5 6 7 8 9 10 11 12
341
FTUS41 KBTV 071140
TAFMPV
TAF
KMPV 071140Z 0712/0812 25005KT P6SM BKN070
     FM071600 31004KT P6SM BKN040
     FM080600 00000KT P6SM BKN040
     FM081000 10004KT P6SM BKN035=

USA.gov is the U.S. government's official web portal to all federal, state and local government web resources and services.